Time;durP1;ratioP1;P1;durP2;ratioP2;P2;SDS_P1;SDS_P2;PMS_P1;PMS_P2;Temp;Humidity;BMP_temperature;BMP_pressure;BME280_temperature;BME280_humidity;BME280_pressure;Samples;Min_cycle;Max_cycle;Signal;HPM_P1;HPM_P2
2022/01/06 00:00:40;;;;;;;5.40;3.55;;;23.50;53.60;;;;;;4975403;29;20050;-75
2022/01/06 00:03:07;;;;;;;5.03;3.40;;;23.40;53.50;;;;;;4975868;28;20043;-75
2022/01/06 00:05:33;;;;;;;5.72;3.10;;;23.40;53.50;;;;;;4971726;29;20043;-74
2022/01/06 00:08:01;;;;;;;7.47;4.20;;;23.40;53.40;;;;;;5004691;28;20039;-74
2022/01/06 00:10:28;;;;;;;5.60;3.60;;;23.50;53.10;;;;;;4976432;28;20113;-74
2022/01/06 00:18:14;;;;;;;6.25;3.10;;;23.50;53.70;;;;;;4975731;28;20102;-74
2022/01/06 00:23:42;;;;;;;4.78;3.72;;;23.40;53.60;;;;;;4975719;28;20042;-74
2022/01/06 00:26:08;;;;;;;7.30;4.32;;;23.50;53.70;;;;;;4956687;29;20052;-74
2022/01/06 00:28:36;;;;;;;6.55;3.53;;;23.40;53.90;;;;;;4956657;29;20056;-74
2022/01/06 00:31:03;;;;;;;5.78;3.47;;;23.30;53.10;;;;;;4974022;29;20065;-74
2022/01/06 00:33:32;;;;;;;5.55;3.47;;;23.20;54.20;;;;;;4975087;28;20035;-74
2022/01/06 00:35:58;;;;;;;4.55;3.60;;;23.20;54.40;;;;;;4975029;28;20206;-74
2022/01/06 00:38:25;;;;;;;7.88;3.65;;;23.20;54.50;;;;;;4975678;28;20106;-74
2022/01/06 00:40:53;;;;;;;4.65;3.70;;;23.20;54.50;;;;;;4974921;28;20081;-74
2022/01/06 00:43:19;;;;;;;3.25;2.85;;;23.10;54.60;;;;;;4974931;28;20423;-74
2022/01/06 00:45:45;;;;;;;4.75;3.22;;;23.10;54.40;;;;;;4974695;28;20057;-74
2022/01/06 00:48:11;;;;;;;4.15;2.60;;;23.10;54.60;;;;;;4975530;28;20133;-74
2022/01/06 00:50:40;;;;;;;6.25;3.10;;;23.00;54.00;;;;;;4974311;28;20031;-74
2022/01/06 00:53:07;;;;;;;4.78;3.53;;;23.10;54.60;;;;;;4974381;28;20099;-74
2022/01/06 00:55:34;;;;;;;6.43;4.38;;;23.00;54.50;;;;;;4974894;28;20043;-74
2022/01/06 00:58:02;;;;;;;7.70;4.22;;;23.10;54.30;;;;;;4974129;28;20039;-74
2022/01/06 01:00:37;;;;;;;9.25;4.10;;;23.00;54.30;;;;;;4974733;28;20073;-74
2022/01/06 01:03:07;;;;;;;6.00;4.43;;;23.00;54.60;;;;;;4975103;28;20050;-74
2022/01/06 01:05:33;;;;;;;7.80;4.70;;;22.90;53.60;;;;;;4974676;29;20038;-73
2022/01/06 01:07:59;;;;;;;7.78;4.82;;;22.90;54.30;;;;;;4974424;28;20050;-74
2022/01/06 01:10:25;;;;;;;7.10;4.13;;;23.00;54.40;;;;;;4975531;28;20043;-74
2022/01/06 01:12:51;;;;;;;9.35;4.70;;;22.90;54.20;;;;;;4974523;28;20043;-74
2022/01/06 01:15:20;;;;;;;9.50;5.63;;;22.90;53.40;;;;;;4974139;28;20042;-74
2022/01/06 01:17:53;;;;;;;7.30;4.10;;;22.80;54.70;;;;;;4975250;28;20044;-74
2022/01/06 01:20:20;;;;;;;8.35;5.57;;;22.90;54.90;;;;;;4974392;28;20046;-74
2022/01/06 01:22:47;;;;;;;7.90;4.68;;;22.90;54.90;;;;;;4974560;28;20059;-74
2022/01/06 01:25:14;;;;;;;7.47;4.85;;;22.90;54.50;;;;;;4974545;29;20049;-75
2022/01/06 01:27:43;;;;;;;6.43;4.82;;;22.90;54.50;;;;;;4975002;28;20111;-74
2022/01/06 01:30:14;;;;;;;10.35;5.25;;;23.00;54.80;;;;;;4974335;28;20098;-74
2022/01/06 01:32:45;;;;;;;6.57;4.90;;;23.00;54.50;;;;;;4975261;28;20077;-74
2022/01/06 01:35:12;;;;;;;6.85;5.47;;;22.90;54.90;;;;;;4973072;28;20063;-74
2022/01/06 01:37:39;;;;;;;8.38;4.95;;;22.80;55.00;;;;;;4973671;28;20074;-74
2022/01/06 01:40:10;;;;;;;7.18;4.53;;;22.80;55.20;;;;;;4974182;29;20047;-74
2022/01/06 01:42:36;;;;;;;8.07;4.60;;;22.90;55.30;;;;;;4975081;28;20039;-74
2022/01/06 01:45:04;;;;;;;8.88;4.82;;;22.80;55.20;;;;;;4973496;29;20059;-74
2022/01/06 01:47:44;;;;;;;9.70;5.07;;;22.90;55.40;;;;;;4974671;28;20047;-74
2022/01/06 01:50:13;;;;;;;6.85;4.68;;;22.90;55.50;;;;;;4973510;28;20035;-74
2022/01/06 01:52:41;;;;;;;4.53;3.30;;;22.80;55.30;;;;;;4973764;28;20043;-74
2022/01/06 01:55:08;;;;;;;5.75;4.07;;;22.80;55.30;;;;;;4974784;28;20049;-74
2022/01/06 01:57:35;;;;;;;4.43;4.03;;;22.80;55.40;;;;;;4974009;28;20043;-74
2022/01/06 02:00:04;;;;;;;6.80;3.35;;;22.80;55.60;;;;;;4974088;28;20040;-74
2022/01/06 02:02:38;;;;;;;3.67;3.38;;;22.60;55.40;;;;;;4972812;29;20040;-73
2022/01/06 02:05:07;;;;;;;6.55;4.10;;;22.50;55.60;;;;;;4974022;29;20047;-74
2022/01/06 02:07:35;;;;;;;5.50;3.83;;;22.50;55.70;;;;;;4974338;29;20135;-74
2022/01/06 02:10:03;;;;;;;6.72;3.65;;;22.50;55.90;;;;;;4982180;28;20047;-74
2022/01/06 02:12:33;;;;;;;4.38;3.40;;;22.30;55.90;;;;;;4974540;28;20047;-74
2022/01/06 02:15:01;;;;;;;5.32;3.95;;;22.40;56.10;;;;;;4974113;28;20111;-74
2022/01/06 02:17:27;;;;;;;6.45;4.38;;;22.40;56.10;;;;;;4974202;28;20054;-73
2022/01/06 02:20:01;;;;;;;5.95;3.95;;;22.40;56.20;;;;;;4973947;29;20046;-74
2022/01/06 02:22:27;;;;;;;6.07;3.80;;;22.30;56.20;;;;;;4974351;28;20077;-74
2022/01/06 02:24:54;;;;;;;10.18;4.20;;;22.30;56.30;;;;;;4974520;28;20045;-74
2022/01/06 02:27:21;;;;;;;6.22;4.38;;;22.20;56.30;;;;;;4974116;28;20047;-74
2022/01/06 02:29:48;;;;;;;4.13;3.72;;;22.10;56.40;;;;;;4973826;28;20054;-74
2022/01/06 02:32:16;;;;;;;5.65;4.38;;;22.20;56.50;;;;;;4973938;28;20039;-74
2022/01/06 02:34:44;;;;;;;4.40;3.65;;;22.30;56.40;;;;;;4972850;28;20085;-74
2022/01/06 02:37:12;;;;;;;5.00;4.03;;;22.30;56.20;;;;;;4975164;28;20043;-74
2022/01/06 02:39:38;;;;;;;5.68;4.05;;;22.30;56.20;;;;;;4976679;28;20073;-74
2022/01/06 02:42:05;;;;;;;5.63;4.07;;;22.30;56.30;;;;;;4977507;28;20043;-74
2022/01/06 02:44:31;;;;;;;4.45;3.60;;;22.30;56.30;;;;;;4976984;28;20058;-72
2022/01/06 02:46:57;;;;;;;4.93;3.50;;;22.30;56.40;;;;;;4977137;28;20051;-74
2022/01/06 02:49:23;;;;;;;5.38;4.13;;;22.30;56.40;;;;;;4977469;28;20070;-74
2022/01/06 02:51:49;;;;;;;7.05;3.85;;;22.30;56.40;;;;;;4976802;29;20055;-74
2022/01/06 02:54:16;;;;;;;5.30;3.95;;;22.20;56.30;;;;;;4976562;28;20035;-74
2022/01/06 02:56:43;;;;;;;5.80;4.40;;;22.30;56.40;;;;;;4977276;28;20019;-75
2022/01/06 02:59:10;;;;;;;5.72;4.00;;;22.20;56.30;;;;;;4976109;28;20107;-74
2022/01/06 03:01:43;;;;;;;7.70;3.88;;;22.30;56.50;;;;;;4975681;28;20039;-74
2022/01/06 03:04:11;;;;;;;6.88;4.22;;;22.20;56.40;;;;;;4975467;28;20487;-74
2022/01/06 03:06:39;;;;;;;6.35;4.50;;;22.20;56.50;;;;;;4976046;28;20040;-74
2022/01/06 03:09:06;;;;;;;10.40;5.68;;;22.10;56.40;;;;;;4975501;29;20050;-74
2022/01/06 03:11:33;;;;;;;6.13;5.05;;;22.00;56.40;;;;;;4976512;28;20044;-74
2022/01/06 03:14:00;;;;;;;6.28;4.25;;;22.20;56.50;;;;;;4976106;28;20035;-74
2022/01/06 03:16:26;;;;;;;5.70;4.15;;;22.00;56.50;;;;;;4977345;28;20069;-74
2022/01/06 03:18:52;;;;;;;6.82;4.65;;;22.00;56.50;;;;;;4976692;29;20040;-74
2022/01/06 03:21:19;;;;;;;5.47;4.45;;;22.00;56.50;;;;;;4975980;29;20039;-74
2022/01/06 03:23:46;;;;;;;6.50;5.22;;;21.90;56.60;;;;;;4975277;29;20063;-74
2022/01/06 03:26:12;;;;;;;5.97;4.20;;;21.90;56.70;;;;;;4975353;28;20061;-74
2022/01/06 03:28:38;;;;;;;6.97;4.53;;;21.90;56.60;;;;;;4974418;28;20051;-74
2022/01/06 03:31:04;;;;;;;6.93;4.57;;;21.80;56.50;;;;;;4974849;28;20028;-73
2022/01/06 03:33:31;;;;;;;7.07;3.95;;;21.90;56.70;;;;;;4974923;28;20044;-74
2022/01/06 03:35:57;;;;;;;8.40;4.68;;;21.70;56.60;;;;;;4974696;28;20035;-74
2022/01/06 03:38:23;;;;;;;5.15;3.85;;;21.80;56.70;;;;;;4974994;28;20051;-73
2022/01/06 03:40:49;;;;;;;4.20;3.38;;;21.70;56.70;;;;;;4976277;28;20041;-74
2022/01/06 03:43:16;;;;;;;8.60;4.40;;;21.80;56.70;;;;;;4976427;28;20106;-74
2022/01/06 03:45:42;;;;;;;6.03;3.55;;;21.80;56.70;;;;;;4976392;28;20043;-74
2022/01/06 03:48:08;;;;;;;4.82;3.30;;;21.80;56.70;;;;;;4975150;28;20392;-74
2022/01/06 03:50:34;;;;;;;7.95;4.05;;;21.70;56.70;;;;;;4975295;28;20046;-74
2022/01/06 03:53:00;;;;;;;5.03;4.03;;;21.80;56.70;;;;;;4976562;29;20039;-73
2022/01/06 03:55:26;;;;;;;7.65;4.30;;;21.80;56.70;;;;;;4975253;29;20070;-74
2022/01/06 03:57:52;;;;;;;4.82;3.75;;;21.80;56.70;;;;;;4975581;28;20095;-74
2022/01/06 04:00:20;;;;;;;7.05;4.50;;;21.80;56.70;;;;;;4975953;29;20399;-74
2022/01/06 04:02:46;;;;;;;4.43;4.00;;;21.70;56.70;;;;;;4975516;28;20047;-74
2022/01/06 04:05:14;;;;;;;4.63;3.58;;;21.80;56.60;;;;;;4974769;28;20039;-74
2022/01/06 04:07:41;;;;;;;4.53;3.00;;;21.70;56.60;;;;;;4975839;28;20071;-74
2022/01/06 04:10:09;;;;;;;4.22;3.55;;;21.80;56.50;;;;;;4974004;29;20046;-73
2022/01/06 04:12:36;;;;;;;3.40;3.00;;;21.80;56.50;;;;;;4975325;28;20039;-74
2022/01/06 04:15:08;;;;;;;4.63;2.38;;;21.80;56.40;;;;;;4975498;28;20039;-74
2022/01/06 04:17:34;;;;;;;4.53;3.60;;;21.80;56.40;;;;;;4974792;28;20051;-74
2022/01/06 04:20:00;;;;;;;4.15;3.75;;;21.80;56.30;;;;;;4974757;29;20062;-74
2022/01/06 04:22:26;;;;;;;4.95;3.92;;;21.80;56.30;;;;;;4976075;28;20039;-74
2022/01/06 04:24:53;;;;;;;7.13;3.70;;;21.70;56.40;;;;;;4976220;28;20035;-73
2022/01/06 04:27:19;;;;;;;4.60;3.67;;;21.70;56.60;;;;;;4975147;29;20043;-74
2022/01/06 04:29:45;;;;;;;5.60;3.95;;;21.60;56.50;;;;;;4975342;28;20039;-74
2022/01/06 04:32:11;;;;;;;4.35;3.28;;;21.60;56.50;;;;;;4975287;28;20066;-74
2022/01/06 04:34:38;;;;;;;4.53;3.80;;;21.60;56.50;;;;;;4975380;28;20043;-74
2022/01/06 04:37:04;;;;;;;6.75;4.43;;;21.60;56.50;;;;;;4974423;28;20039;-74
2022/01/06 04:39:30;;;;;;;4.78;3.40;;;21.50;56.60;;;;;;4975249;28;20039;-74
2022/01/06 04:41:56;;;;;;;6.32;3.67;;;21.50;56.80;;;;;;4974653;28;20218;-74
2022/01/06 04:44:23;;;;;;;4.15;3.45;;;21.60;56.80;;;;;;4975032;28;20103;-74
2022/01/06 04:46:49;;;;;;;5.13;3.80;;;21.40;56.60;;;;;;4974875;28;20069;-74
2022/01/06 04:49:15;;;;;;;5.82;4.18;;;21.40;56.80;;;;;;4975622;28;20107;-74
2022/01/06 04:51:41;;;;;;;4.47;3.95;;;21.40;56.90;;;;;;4973417;28;20035;-74
2022/01/06 04:54:08;;;;;;;5.03;3.53;;;21.40;57.00;;;;;;4975050;28;20130;-74
2022/01/06 04:56:37;;;;;;;7.15;4.38;;;21.40;57.00;;;;;;4975031;28;20043;-74
2022/01/06 04:59:08;;;;;;;5.93;4.40;;;21.40;57.10;;;;;;4975225;28;20035;-74
2022/01/06 05:01:38;;;;;;;9.05;3.70;;;21.30;57.10;;;;;;4973628;28;20036;-74
2022/01/06 05:04:05;;;;;;;7.40;3.78;;;21.30;57.30;;;;;;4974521;28;20047;-74
2022/01/06 05:06:31;;;;;;;7.13;4.45;;;21.30;57.30;;;;;;4974432;28;20095;-74
2022/01/06 05:08:57;;;;;;;5.43;4.45;;;21.30;57.30;;;;;;4973761;28;20047;-74
2022/01/06 05:11:23;;;;;;;4.25;3.80;;;21.50;57.30;;;;;;4974027;28;20043;-74
2022/01/06 05:13:50;;;;;;;4.05;3.35;;;21.50;57.20;;;;;;4974446;28;20039;-74
2022/01/06 05:16:16;;;;;;;6.22;3.95;;;21.30;56.90;;;;;;4974435;28;20051;-73
2022/01/06 05:18:42;;;;;;;7.35;4.45;;;21.40;56.80;;;;;;4974781;28;20062;-73
2022/01/06 05:21:08;;;;;;;5.45;4.00;;;21.50;56.70;;;;;;4974138;28;20073;-74
2022/01/06 05:23:35;;;;;;;7.93;4.68;;;21.50;56.70;;;;;;4973147;28;20043;-74
2022/01/06 05:26:02;;;;;;;5.20;4.25;;;21.50;56.70;;;;;;4973839;28;20126;-74
2022/01/06 05:28:28;;;;;;;7.60;4.97;;;21.50;56.70;;;;;;4974394;28;20050;-74
2022/01/06 05:30:54;;;;;;;4.28;3.85;;;21.50;56.60;;;;;;4974056;28;20090;-74
2022/01/06 05:33:20;;;;;;;6.00;4.35;;;21.50;56.50;;;;;;4974406;28;20065;-74
2022/01/06 05:35:47;;;;;;;9.23;6.22;;;21.60;56.50;;;;;;4974055;28;20027;-74
2022/01/06 05:38:13;;;;;;;7.28;4.57;;;21.50;56.40;;;;;;4974326;28;20074;-74
2022/01/06 05:40:39;;;;;;;7.65;5.50;;;21.60;56.30;;;;;;4973993;29;20047;-73
2022/01/06 05:43:05;;;;;;;7.85;4.95;;;21.60;56.20;;;;;;4974222;28;20107;-74
2022/01/06 05:45:35;;;;;;;6.80;5.15;;;21.50;56.10;;;;;;4974218;28;20039;-73
2022/01/06 05:48:01;;;;;;;6.82;4.70;;;21.50;56.20;;;;;;4973648;28;20050;-74
2022/01/06 05:50:27;;;;;;;7.05;3.55;;;21.60;56.20;;;;;;4973033;29;20035;-74
2022/01/06 05:52:54;;;;;;;5.45;4.07;;;21.60;56.10;;;;;;4973070;29;20039;-73
2022/01/06 05:55:21;;;;;;;8.10;4.30;;;21.70;56.10;;;;;;4973743;29;20069;-74
2022/01/06 05:57:50;;;;;;;4.95;3.90;;;21.60;55.70;;;;;;4974031;28;20041;-72
2022/01/06 06:00:17;;;;;;;3.97;3.45;;;21.70;55.60;;;;;;4973997;29;20095;-73
2022/01/06 06:02:43;;;;;;;7.03;3.45;;;21.70;55.60;;;;;;4973682;28;20111;-74
2022/01/06 06:05:10;;;;;;;4.55;3.03;;;21.70;55.60;;;;;;4975011;28;20050;-74
2022/01/06 06:07:36;;;;;;;5.30;3.78;;;21.70;55.60;;;;;;4979439;28;20047;-75
2022/01/06 06:10:03;;;;;;;6.88;4.10;;;21.70;55.60;;;;;;4981429;28;20054;-74
2022/01/06 06:12:29;;;;;;;2.92;2.60;;;21.70;55.40;;;;;;4977619;28;20043;-71
2022/01/06 06:14:55;;;;;;;3.70;2.20;;;21.70;50.90;;;;;;4985989;28;20031;-72
2022/01/06 06:17:21;;;;;;;4.13;2.92;;;21.80;47.40;;;;;;4985586;28;20054;-72
2022/01/06 06:19:47;;;;;;;4.47;3.30;;;21.80;46.40;;;;;;4986008;28;20047;-72
2022/01/06 06:22:13;;;;;;;6.18;2.70;;;21.90;45.50;;;;;;4985100;28;20043;-71
2022/01/06 06:24:40;;;;;;;3.90;2.58;;;22.00;45.70;;;;;;4982318;28;20050;-73
2022/01/06 06:27:06;;;;;;;3.47;2.42;;;22.00;45.60;;;;;;4987439;28;20050;-72
2022/01/06 06:29:33;;;;;;;4.78;3.55;;;22.20;44.80;;;;;;4985067;28;20035;-73
2022/01/06 06:31:59;;;;;;;5.57;3.42;;;22.30;46.00;;;;;;4987487;28;20057;-73
2022/01/06 06:34:25;;;;;;;3.92;3.00;;;22.40;46.50;;;;;;4985338;28;20050;-73
2022/01/06 06:36:51;;;;;;;4.35;2.90;;;22.50;45.40;;;;;;4985328;28;20047;-73
2022/01/06 06:39:17;;;;;;;5.30;3.53;;;22.60;48.80;;;;;;4982894;28;20043;-72
2022/01/06 06:41:43;;;;;;;5.43;3.33;;;22.60;47.70;;;;;;4983838;28;20106;-73
2022/01/06 06:44:10;;;;;;;5.82;4.03;;;22.80;45.50;;;;;;5051413;28;20038;-75
2022/01/06 06:46:36;;;;;;;4.43;3.00;;;22.80;45.80;;;;;;4976911;28;20049;-74
2022/01/06 06:49:02;;;;;;;4.60;3.10;;;22.80;49.30;;;;;;4994680;28;20045;-73
2022/01/06 06:51:28;;;;;;;6.03;3.28;;;22.90;46.80;;;;;;4984973;28;20038;-71
2022/01/06 06:53:55;;;;;;;11.50;3.63;;;22.90;44.40;;;;;;4976153;29;20039;-72
2022/01/06 06:56:21;;;;;;;9.75;3.58;;;23.00;43.30;;;;;;4975962;29;20035;-73
2022/01/06 06:58:47;;;;;;;8.27;3.88;;;23.00;44.10;;;;;;4976270;29;20051;-72
2022/01/06 07:01:14;;;;;;;11.90;7.38;;;22.90;44.90;;;;;;4974545;28;20043;-73
2022/01/06 07:03:41;;;;;;;14.38;7.82;;;23.00;54.00;;;;;;4986618;28;20070;-74
2022/01/06 07:06:07;;;;;;;10.07;6.40;;;23.00;54.90;;;;;;4974611;28;20043;-71
2022/01/06 07:08:33;;;;;;;9.50;6.82;;;22.90;55.70;;;;;;4981849;28;20118;-74
2022/01/06 07:10:59;;;;;;;9.00;6.47;;;22.90;56.10;;;;;;4981020;28;20047;-81
2022/01/06 07:13:25;;;;;;;11.95;7.55;;;22.70;56.60;;;;;;4974730;28;20039;-75
2022/01/06 07:15:52;;;;;;;8.48;6.82;;;22.80;57.40;;;;;;4969781;28;20036;-74
2022/01/06 07:18:18;;;;;;;12.40;6.70;;;22.60;58.10;;;;;;4968924;29;20059;-75
2022/01/06 07:20:44;;;;;;;9.45;6.30;;;22.50;58.40;;;;;;4974021;29;20078;-75
2022/01/06 07:23:12;;;;;;;13.23;6.78;;;22.60;58.60;;;;;;4997343;28;20031;-73
2022/01/06 07:25:38;;;;;;;11.63;7.28;;;22.60;58.80;;;;;;4974827;28;20129;-75
2022/01/06 07:28:05;;;;;;;10.48;7.13;;;22.50;58.90;;;;;;4974472;29;20039;-75
2022/01/06 07:30:33;;;;;;;10.68;6.32;;;22.50;58.80;;;;;;4972818;29;20070;-73
2022/01/06 07:33:00;;;;;;;10.13;6.40;;;22.50;59.20;;;;;;4973774;28;20047;-72
2022/01/06 07:35:27;;;;;;;9.70;7.38;;;22.50;59.10;;;;;;4973952;29;20059;-74
2022/01/06 07:37:54;;;;;;;15.88;6.85;;;22.60;59.10;;;;;;4965999;28;20079;-71
2022/01/06 07:40:20;;;;;;;9.70;6.10;;;22.60;59.20;;;;;;4988406;28;20063;-72
2022/01/06 07:42:48;;;;;;;7.90;5.50;;;22.40;59.60;;;;;;4963288;28;20036;-75
2022/01/06 07:45:15;;;;;;;17.95;8.10;;;22.50;59.70;;;;;;4971597;29;20058;-75
2022/01/06 07:48:01;;;;;;;12.60;7.57;;;22.50;59.40;;;;;;4965584;29;20119;-72
2022/01/06 07:50:31;;;;;;;10.45;6.38;;;22.40;59.60;;;;;;4973690;28;20032;-73
2022/01/06 07:53:02;;;;;;;11.60;6.78;;;22.30;59.70;;;;;;4960707;28;20063;-74
2022/01/06 07:55:28;;;;;;;9.90;6.88;;;22.20;59.70;;;;;;4966473;29;20046;-72
2022/01/06 07:57:55;;;;;;;9.90;6.78;;;22.40;59.50;;;;;;4967828;29;20038;-73
2022/01/06 08:00:22;;;;;;;14.05;7.10;;;22.20;59.20;;;;;;4963014;28;20074;-74
2022/01/06 08:02:49;;;;;;;13.23;6.05;;;22.10;59.10;;;;;;4963124;28;20043;-73
2022/01/06 08:05:15;;;;;;;11.75;6.68;;;22.20;59.40;;;;;;4972265;28;20085;-73
2022/01/06 08:07:42;;;;;;;8.82;1.20;;;22.30;59.00;;;;;;4962281;28;20043;-73
2022/01/06 08:10:10;;;;;;;5.05;1.65;;;22.60;58.80;;;;;;4981402;28;20077;-73
2022/01/06 08:12:36;;;;;;;0.93;0.93;;;22.70;57.60;;;;;;4974321;29;20454;-73
2022/01/06 08:15:05;;;;;;;7.90;2.00;;;22.90;55.50;;;;;;4972063;29;20111;-75
2022/01/06 08:17:31;;;;;;;0.57;0.57;;;23.00;53.70;;;;;;4965583;29;20035;-74
2022/01/06 08:19:58;;;;;;;2.30;2.17;;;23.20;53.40;;;;;;4971629;28;20058;-76
2022/01/06 08:22:24;;;;;;;6.20;3.22;;;23.30;55.40;;;;;;4971335;28;20062;-75
2022/01/06 08:24:55;;;;;;;8.70;3.33;;;23.40;54.10;;;;;;4974296;28;20035;-76
2022/01/06 08:27:23;;;;;;;3.40;2.58;;;23.40;51.30;;;;;;4977641;28;20171;-75
2022/01/06 08:29:52;;;;;;;3.95;1.55;;;23.50;50.10;;;;;;4974377;29;20054;-74
2022/01/06 08:32:19;;;;;;;1.35;1.25;;;23.40;48.80;;;;;;4972123;28;20062;-75
2022/01/06 08:34:46;;;;;;;2.97;1.75;;;23.40;48.10;;;;;;4969352;28;20035;-74
2022/01/06 08:37:12;;;;;;;1.23;1.13;;;23.40;47.80;;;;;;4971862;29;20054;-75
2022/01/06 08:39:39;;;;;;;3.42;2.28;;;23.50;47.50;;;;;;4958209;29;20046;-75
2022/01/06 08:42:05;;;;;;;5.72;3.25;;;23.50;47.50;;;;;;4971991;29;20047;-76
2022/01/06 08:44:33;;;;;;;2.05;1.63;;;23.40;47.80;;;;;;4966954;28;20039;-80
2022/01/06 08:47:01;;;;;;;3.75;2.42;;;23.40;47.90;;;;;;4959593;28;20040;-77
2022/01/06 08:49:28;;;;;;;2.15;1.35;;;23.40;46.80;;;;;;4964306;29;20040;-76
2022/01/06 08:51:54;;;;;;;2.17;2.00;;;23.40;46.10;;;;;;4972937;29;20054;-76
2022/01/06 08:54:21;;;;;;;6.95;4.05;;;23.40;44.80;;;;;;4960196;28;20032;-74
2022/01/06 08:56:47;;;;;;;12.07;3.08;;;23.30;43.90;;;;;;4967857;29;20103;-74
2022/01/06 08:59:13;;;;;;;5.20;3.28;;;23.20;44.00;;;;;;4968635;29;20122;-76
2022/01/06 09:01:40;;;;;;;6.50;3.70;;;23.30;45.00;;;;;;4964828;28;20077;-79
2022/01/06 09:04:06;;;;;;;9.18;4.85;;;23.20;43.30;;;;;;4963925;28;20057;-77
2022/01/06 09:06:32;;;;;;;6.05;4.70;;;23.20;43.50;;;;;;4968945;29;20027;-77
2022/01/06 09:08:58;;;;;;;7.18;5.65;;;23.00;42.80;;;;;;4963199;29;20047;-78
2022/01/06 09:11:24;;;;;;;7.07;5.70;;;23.00;42.90;;;;;;4973907;28;20082;-78
2022/01/06 09:13:51;;;;;;;10.23;5.82;;;22.80;43.80;;;;;;4960326;28;20044;-78
2022/01/06 09:16:17;;;;;;;10.82;6.85;;;22.80;44.10;;;;;;4960506;28;20078;-78
2022/01/06 09:18:43;;;;;;;9.52;6.50;;;22.60;44.30;;;;;;4974703;28;20102;-78
2022/01/06 09:21:09;;;;;;;9.88;6.32;;;22.60;44.20;;;;;;4974297;28;20060;-78
2022/01/06 09:23:37;;;;;;;9.23;5.78;;;22.50;45.80;;;;;;4974476;28;20070;-77
2022/01/06 09:26:03;;;;;;;7.18;5.10;;;22.60;47.00;;;;;;4974540;28;20039;-78
2022/01/06 09:28:29;;;;;;;7.07;4.88;;;22.40;47.10;;;;;;4974569;29;20043;-77
2022/01/06 09:30:56;;;;;;;8.15;5.70;;;22.60;47.40;;;;;;4974421;28;20093;-78
2022/01/06 09:33:23;;;;;;;7.35;5.45;;;22.50;48.00;;;;;;4974173;29;20096;-78
2022/01/06 09:35:52;;;;;;;9.50;5.70;;;22.40;47.60;;;;;;4974514;29;20109;-78
2022/01/06 09:38:19;;;;;;;7.95;4.53;;;22.60;48.30;;;;;;4974387;28;20085;-77
2022/01/06 09:40:45;;;;;;;7.38;5.03;;;22.50;48.30;;;;;;4974203;28;20051;-78
2022/01/06 09:43:13;;;;;;;5.65;4.60;;;22.50;48.90;;;;;;4973641;28;20031;-78
2022/01/06 09:45:41;;;;;;;4.63;4.10;;;22.50;49.00;;;;;;4975254;28;20123;-77
2022/01/06 09:48:08;;;;;;;4.70;3.90;;;22.50;48.80;;;;;;4977698;29;20046;-78
2022/01/06 09:50:37;;;;;;;6.28;3.78;;;22.50;48.20;;;;;;4977344;29;20110;-78
2022/01/06 09:53:03;;;;;;;5.78;4.40;;;22.50;49.50;;;;;;4971157;28;20039;-77
2022/01/06 09:55:29;;;;;;;5.90;4.05;;;22.60;49.50;;;;;;4975333;28;20044;-78
2022/01/06 09:57:59;;;;;;;10.85;5.88;;;22.50;49.50;;;;;;4977535;28;20046;-77
2022/01/06 10:00:27;;;;;;;5.55;4.38;;;22.40;49.30;;;;;;4977862;28;20035;-78
2022/01/06 10:02:56;;;;;;;4.00;3.25;;;22.50;48.70;;;;;;4967425;28;20032;-77
2022/01/06 10:05:23;;;;;;;5.25;3.70;;;22.50;50.10;;;;;;4969489;29;20060;-77
2022/01/06 10:07:49;;;;;;;4.60;3.90;;;22.40;50.10;;;;;;4975947;29;20035;-77
2022/01/06 10:10:15;;;;;;;6.07;3.70;;;22.40;50.30;;;;;;4977067;28;20095;-77
2022/01/06 10:12:42;;;;;;;5.82;3.95;;;22.30;50.30;;;;;;4977342;28;20059;-77
2022/01/06 10:15:23;;;;;;;7.35;3.92;;;22.30;50.30;;;;;;4976564;28;20107;-77
2022/01/06 10:17:50;;;;;;;4.95;3.97;;;22.40;49.80;;;;;;4973206;29;20046;-77
2022/01/06 10:20:20;;;;;;;4.45;3.75;;;22.30;50.70;;;;;;4976966;28;20106;-76
2022/01/06 10:22:53;;;;;;;5.45;3.78;;;22.30;50.80;;;;;;4976296;28;20031;-78
2022/01/06 10:25:22;;;;;;;4.13;2.65;;;22.30;50.80;;;;;;4968058;28;20047;-77
2022/01/06 10:27:49;;;;;;;4.53;2.60;;;22.50;42.00;;;;;;4972711;28;20067;-74
2022/01/06 10:30:16;;;;;;;5.38;3.45;;;22.60;43.70;;;;;;4970950;28;20073;-76
2022/01/06 10:32:43;;;;;;;5.15;3.40;;;22.70;47.40;;;;;;4971519;28;20095;-76
2022/01/06 10:35:11;;;;;;;6.05;3.58;;;22.80;42.10;;;;;;4978570;28;20050;-76
2022/01/06 10:37:41;;;;;;;3.85;3.03;;;22.90;39.70;;;;;;4974743;28;20086;-74
2022/01/06 10:40:13;;;;;;;3.03;2.03;;;22.80;39.40;;;;;;4975076;28;20044;-74
2022/01/06 10:42:42;;;;;;;3.88;2.85;;;22.80;37.70;;;;;;4995259;28;20051;-74
2022/01/06 10:45:13;;;;;;;3.47;2.78;;;22.90;37.60;;;;;;4968269;29;20096;-74
2022/01/06 10:47:42;;;;;;;3.38;2.72;;;22.90;36.70;;;;;;4964355;29;20097;-74
2022/01/06 10:50:10;;;;;;;4.63;2.78;;;23.00;37.80;;;;;;4971263;28;20111;-73
2022/01/06 10:52:39;;;;;;;4.90;2.95;;;22.90;36.70;;;;;;4972119;28;20114;-74
2022/01/06 10:55:18;;;;;;;5.90;4.25;;;23.00;36.50;;;;;;4964045;28;20064;-72
2022/01/06 10:57:58;;;;;;;5.18;3.83;;;23.20;36.80;;;;;;4960194;29;20031;-73
2022/01/06 11:00:29;;;;;;;7.90;3.72;;;23.10;36.60;;;;;;4972656;29;20056;-72
2022/01/06 11:03:08;;;;;;;8.32;5.55;;;23.10;41.40;;;;;;4959688;28;20067;-74
2022/01/06 11:05:36;;;;;;;7.40;3.60;;;23.20;41.80;;;;;;4966974;28;20042;-72
2022/01/06 11:08:05;;;;;;;4.65;4.13;;;23.60;40.80;;;;;;4974483;28;20051;-73
2022/01/06 11:10:36;;;;;;;7.20;4.25;;;23.70;43.00;;;;;;4975622;28;20062;-73
2022/01/06 11:13:04;;;;;;;5.07;4.57;;;23.80;38.00;;;;;;4994108;28;20041;-72
2022/01/06 11:15:31;;;;;;;5.50;4.00;;;23.90;38.80;;;;;;4999267;28;20035;-71
2022/01/06 11:18:00;;;;;;;4.75;2.63;;;23.80;38.30;;;;;;4972522;29;20047;-73
2022/01/06 11:20:28;;;;;;;8.55;4.47;;;23.80;36.50;;;;;;4976038;28;20035;-74
2022/01/06 11:22:56;;;;;;;6.53;5.47;;;23.60;35.70;;;;;;5033657;28;20081;-74
2022/01/06 11:25:36;;;;;;;4.43;2.65;;;23.60;36.40;;;;;;5000685;28;20043;-73
2022/01/06 11:28:12;;;;;;;4.25;3.05;;;23.50;36.30;;;;;;4997202;28;20037;-74
2022/01/06 11:30:52;;;;;;;4.32;3.92;;;23.50;35.30;;;;;;4976032;29;20111;-74
2022/01/06 11:33:19;;;;;;;3.33;2.00;;;23.50;37.20;;;;;;4975655;28;20043;-75
2022/01/06 11:35:57;;;;;;;4.28;2.97;;;23.40;36.60;;;;;;4976082;28;20043;-74
2022/01/06 11:38:27;;;;;;;5.05;2.95;;;23.40;36.60;;;;;;4975799;28;20047;-74
2022/01/06 11:41:11;;;;;;;6.90;3.80;;;23.30;37.20;;;;;;4975952;29;20039;-75
2022/01/06 11:43:40;;;;;;;3.30;2.38;;;23.30;36.40;;;;;;4975606;29;20043;-73
2022/01/06 11:46:06;;;;;;;4.20;2.53;;;23.30;37.60;;;;;;4976112;29;20093;-76
2022/01/06 11:48:32;;;;;;;3.50;3.20;;;23.30;38.70;;;;;;4974114;29;20111;-74
2022/01/06 11:50:58;;;;;;;4.82;3.30;;;23.30;37.80;;;;;;4975425;29;20054;-75
2022/01/06 11:53:33;;;;;;;6.43;3.97;;;23.20;50.50;;;;;;4975185;28;20095;-79
2022/01/06 11:56:12;;;;;;;4.47;3.67;;;23.20;51.70;;;;;;4968157;28;20052;-76
2022/01/06 11:58:38;;;;;;;3.45;3.15;;;23.20;52.80;;;;;;4965465;28;20058;-74
2022/01/06 12:01:11;;;;;;;4.65;3.17;;;23.20;52.00;;;;;;4966243;29;20054;-74
2022/01/06 12:03:45;;;;;;;3.90;3.50;;;23.20;53.20;;;;;;4963354;29;20027;-76
2022/01/06 12:06:27;;;;;;;4.32;2.95;;;23.20;53.10;;;;;;4965862;29;20035;-77
2022/01/06 12:08:54;;;;;;;3.65;3.35;;;23.20;53.10;;;;;;4973168;28;20066;-78
2022/01/06 12:11:33;;;;;;;3.55;3.25;;;23.10;53.20;;;;;;4965677;28;20063;-79
2022/01/06 12:14:01;;;;;;;4.10;2.60;;;22.90;53.40;;;;;;4967095;29;20051;-79
2022/01/06 12:16:30;;;;;;;3.35;3.05;;;23.00;54.30;;;;;;4974718;29;20054;-78
2022/01/06 12:18:56;;;;;;;3.95;3.08;;;23.00;54.50;;;;;;4968322;28;20049;-77
2022/01/06 12:21:23;;;;;;;4.05;3.25;;;23.00;56.70;;;;;;4970139;28;20095;-77
2022/01/06 12:24:02;;;;;;;4.47;3.25;;;23.10;54.80;;;;;;4971935;29;20050;-76
2022/01/06 12:26:28;;;;;;;3.75;2.92;;;23.10;57.70;;;;;;4967402;28;20094;-80
2022/01/06 12:28:54;;;;;;;3.50;2.83;;;23.10;55.40;;;;;;4980793;28;20031;-80
2022/01/06 12:31:31;;;;;;;3.85;2.90;;;23.00;54.60;;;;;;5111624;27;20477;-79
2022/01/06 12:34:01;;;;;;;3.53;3.08;;;23.00;55.20;;;;;;5129796;28;20104;-80
2022/01/06 12:36:29;;;;;;;4.57;3.13;;;23.00;54.60;;;;;;5112630;28;20036;-80
2022/01/06 12:38:56;;;;;;;4.68;3.10;;;23.00;55.00;;;;;;5113184;28;20099;-80
2022/01/06 12:41:30;;;;;;;4.47;3.17;;;22.90;55.00;;;;;;5096127;28;20041;-80
2022/01/06 12:43:58;;;;;;;4.03;3.35;;;22.90;55.10;;;;;;5113304;28;20040;-79
2022/01/06 12:46:31;;;;;;;5.85;3.08;;;22.90;54.10;;;;;;5095890;28;20041;-80
2022/01/06 12:48:57;;;;;;;4.30;3.30;;;22.90;55.10;;;;;;5105286;28;20072;-79
2022/01/06 12:51:28;;;;;;;3.83;2.72;;;22.90;55.20;;;;;;5112879;28;20048;-79
2022/01/06 12:54:13;;;;;;;6.03;3.85;;;22.90;55.10;;;;;;5095827;28;20063;-80
2022/01/06 12:56:43;;;;;;;6.65;3.25;;;22.70;55.10;;;;;;5100986;28;20048;-80